Главная страница
METAR-TAF:

METAR-TAF

Аэропорты :

Запорожье, Украина

широта: 47-52-02N, долгота: 035-18-59E, высота над уровнем моря: 114 м

Текущие метеонаблюдения

Эта сводка был подготовлена 36 минут назад, в 19:00 UTC
Ветер 4 Узел от восточно-юго-восточный
Температура 7°C
Влажность 49%
Давление 1024 hPa
Видимость 10 км и более
Нет облачности ниже 1500 м, и нет кучево-дождевой облачности

METAR: UKDE 261900Z 12002MPS CAVOK 07/M03 Q1024 R20/////// NOSIG

Время: 22:36 (19:36 UTC)

Прогноз

Эта сводка был подготовлена 2 часа и 35 минут назад, в 17:01 UTC
Прогноз действительный с 26-го 18 UTC до 27-го 03 UTC
Ветер 10 Узел от юго-юго-восточный
Видимость 10 км и более
Отдельные облака на высоте 3000 фута
временами
С 26-го 20 UTC до 27-го 03 UTC
Видимость: 2100 м
Отдельные облака на высоте 700 фута
дымка

TAF: UKDE 261701Z 2618/2703 15005MPS 9999 SCT030 TEMPO 2620/2703 2100 BR SCT007 TX09/2618Z TN04/2703Z

Метеонаблюдения и прогнозы для более 4000 аэропортов (сводки METAR и TAF).

Имеющиеся станции представлены на карте желтыми и красными точками.

Чтобы увидеть название станции, наведите на нее мышь.

Затем щелкните, чтобы увидеть метеонаблюдения и метеопрогнозы.

Управление картой: чтобы увеличить масштаб, щелкните зеленые кнопки с черным крестиком; чтобы уменьшить масштаб, щелкните зеленую кнопку с тире; для просмотра соседних карт щелкайте зеленые стрелки.


METAR-TAF: